sensor_id;sensor_type;location;lat;lon;timestamp;temperature;humidity
30851;DHT22;17567;48.382;9.102;2022-08-19T00:02:06;18.10;99.90
30851;DHT22;17567;48.382;9.102;2022-08-19T00:07:07;18.10;99.90
30851;DHT22;17567;48.382;9.102;2022-08-19T00:12:08;18.10;99.90
30851;DHT22;17567;48.382;9.102;2022-08-19T00:17:09;18.10;99.90
30851;DHT22;17567;48.382;9.102;2022-08-19T00:22:10;18.10;99.90
30851;DHT22;17567;48.382;9.102;2022-08-19T00:27:11;18.10;99.90
30851;DHT22;17567;48.382;9.102;2022-08-19T00:32:12;18.00;99.90
30851;DHT22;17567;48.382;9.102;2022-08-19T00:37:13;18.00;99.90
30851;DHT22;17567;48.382;9.102;2022-08-19T00:42:16;17.90;99.90
30851;DHT22;17567;48.382;9.102;2022-08-19T00:47:17;17.90;99.90
30851;DHT22;17567;48.382;9.102;2022-08-19T00:52:30;17.90;99.90
30851;DHT22;17567;48.382;9.102;2022-08-19T00:57:35;17.90;99.90
30851;DHT22;17567;48.382;9.102;2022-08-19T01:02:38;17.90;99.90
30851;DHT22;17567;48.382;9.102;2022-08-19T01:07:40;17.90;99.90
30851;DHT22;17567;48.382;9.102;2022-08-19T01:12:41;17.80;99.90
30851;DHT22;17567;48.382;9.102;2022-08-19T01:17:43;17.80;99.90
30851;DHT22;17567;48.382;9.102;2022-08-19T01:23:03;17.80;99.90
30851;DHT22;17567;48.382;9.102;2022-08-19T01:28:04;17.80;99.90
30851;DHT22;17567;48.382;9.102;2022-08-19T01:33:05;17.80;99.90
30851;DHT22;17567;48.382;9.102;2022-08-19T01:38:09;17.90;99.90
30851;DHT22;17567;48.382;9.102;2022-08-19T01:43:11;17.80;99.90
30851;DHT22;17567;48.382;9.102;2022-08-19T01:48:12;17.70;99.90
30851;DHT22;17567;48.382;9.102;2022-08-19T01:53:13;17.80;99.90
30851;DHT22;17567;48.382;9.102;2022-08-19T01:58:23;17.80;99.90
30851;DHT22;17567;48.382;9.102;2022-08-19T02:03:25;17.80;99.90
30851;DHT22;17567;48.382;9.102;2022-08-19T02:08:27;17.80;99.90
30851;DHT22;17567;48.382;9.102;2022-08-19T02:13:28;17.80;99.90
30851;DHT22;17567;48.382;9.102;2022-08-19T02:18:29;17.80;99.90
30851;DHT22;17567;48.382;9.102;2022-08-19T02:23:31;17.80;99.90
30851;DHT22;17567;48.382;9.102;2022-08-19T02:28:32;17.70;99.90
30851;DHT22;17567;48.382;9.102;2022-08-19T02:33:34;17.60;99.90
30851;DHT22;17567;48.382;9.102;2022-08-19T02:38:35;17.70;99.90
30851;DHT22;17567;48.382;9.102;2022-08-19T02:43:37;17.60;99.90
30851;DHT22;17567;48.382;9.102;2022-08-19T02:48:39;17.50;99.90
30851;DHT22;17567;48.382;9.102;2022-08-19T02:53:40;17.50;99.90
30851;DHT22;17567;48.382;9.102;2022-08-19T02:58:41;17.50;99.90
30851;DHT22;17567;48.382;9.102;2022-08-19T03:03:43;17.60;99.90
30851;DHT22;17567;48.382;9.102;2022-08-19T03:08:45;17.50;99.90
30851;DHT22;17567;48.382;9.102;2022-08-19T03:13:47;17.50;99.90
30851;DHT22;17567;48.382;9.102;2022-08-19T03:18:52;17.50;99.90
30851;DHT22;17567;48.382;9.102;2022-08-19T03:23:59;17.60;99.90
30851;DHT22;17567;48.382;9.102;2022-08-19T03:29:04;17.50;99.90
30851;DHT22;17567;48.382;9.102;2022-08-19T03:34:05;17.40;99.90
30851;DHT22;17567;48.382;9.102;2022-08-19T03:39:06;17.40;99.90
30851;DHT22;17567;48.382;9.102;2022-08-19T03:44:08;17.40;99.90
30851;DHT22;17567;48.382;9.102;2022-08-19T03:49:10;17.40;99.90
30851;DHT22;17567;48.382;9.102;2022-08-19T03:54:12;17.40;99.90
30851;DHT22;17567;48.382;9.102;2022-08-19T03:59:26;17.40;99.90
30851;DHT22;17567;48.382;9.102;2022-08-19T04:04:28;17.40;99.90
30851;DHT22;17567;48.382;9.102;2022-08-19T04:09:29;17.40;99.90
30851;DHT22;17567;48.382;9.102;2022-08-19T04:14:30;17.50;99.90
30851;DHT22;17567;48.382;9.102;2022-08-19T04:19:34;17.50;99.90
30851;DHT22;17567;48.382;9.102;2022-08-19T04:24:35;17.50;99.90
30851;DHT22;17567;48.382;9.102;2022-08-19T04:29:36;17.40;99.90
30851;DHT22;17567;48.382;9.102;2022-08-19T04:34:39;17.50;99.90
30851;DHT22;17567;48.382;9.102;2022-08-19T04:39:40;17.40;99.90
30851;DHT22;17567;48.382;9.102;2022-08-19T04:44:59;17.40;99.90
30851;DHT22;17567;48.382;9.102;2022-08-19T09:31:23;17.90;99.90
30851;DHT22;17567;48.382;9.102;2022-08-19T09:36:26;17.80;99.90
30851;DHT22;17567;48.382;9.102;2022-08-19T09:41:27;17.60;99.90
30851;DHT22;17567;48.382;9.102;2022-08-19T09:46:29;17.60;99.90
30851;DHT22;17567;48.382;9.102;2022-08-19T09:51:30;17.50;99.90
30851;DHT22;17567;48.382;9.102;2022-08-19T09:56:32;17.50;99.90
30851;DHT22;17567;48.382;9.102;2022-08-19T10:01:33;17.50;99.90
30851;DHT22;17567;48.382;9.102;2022-08-19T10:06:36;17.60;99.90
30851;DHT22;17567;48.382;9.102;2022-08-19T10:11:40;17.50;99.90
30851;DHT22;17567;48.382;9.102;2022-08-19T10:16:41;17.50;99.90
30851;DHT22;17567;48.382;9.102;2022-08-19T10:21:42;17.40;99.90
30851;DHT22;17567;48.382;9.102;2022-08-19T10:26:43;17.50;99.90
30851;DHT22;17567;48.382;9.102;2022-08-19T10:31:47;17.60;99.90
30851;DHT22;17567;48.382;9.102;2022-08-19T10:36:48;17.60;99.90
30851;DHT22;17567;48.382;9.102;2022-08-19T10:41:50;17.60;99.90
30851;DHT22;17567;48.382;9.102;2022-08-19T10:46:50;17.60;99.90
30851;DHT22;17567;48.382;9.102;2022-08-19T10:51:52;17.50;99.90
30851;DHT22;17567;48.382;9.102;2022-08-19T10:57:11;17.50;99.90
30851;DHT22;17567;48.382;9.102;2022-08-19T11:02:12;17.50;99.90
30851;DHT22;17567;48.382;9.102;2022-08-19T11:07:13;17.50;99.90
30851;DHT22;17567;48.382;9.102;2022-08-19T11:12:14;17.50;99.90
30851;DHT22;17567;48.382;9.102;2022-08-19T11:17:15;17.40;99.90
30851;DHT22;17567;48.382;9.102;2022-08-19T11:22:16;17.60;99.90
30851;DHT22;17567;48.382;9.102;2022-08-19T11:27:17;17.60;99.90
30851;DHT22;17567;48.382;9.102;2022-08-19T11:32:18;17.60;99.90
30851;DHT22;17567;48.382;9.102;2022-08-19T11:37:19;17.60;99.90
30851;DHT22;17567;48.382;9.102;2022-08-19T11:42:20;17.60;99.90
30851;DHT22;17567;48.382;9.102;2022-08-19T11:47:39;17.60;99.90
30851;DHT22;17567;48.382;9.102;2022-08-19T11:52:40;17.60;99.90
30851;DHT22;17567;48.382;9.102;2022-08-19T11:57:42;17.70;99.90
30851;DHT22;17567;48.382;9.102;2022-08-19T12:02:44;17.70;99.90
30851;DHT22;17567;48.382;9.102;2022-08-19T12:07:44;17.80;99.90
30851;DHT22;17567;48.382;9.102;2022-08-19T12:12:46;17.80;99.90
30851;DHT22;17567;48.382;9.102;2022-08-19T12:17:47;17.70;99.90
30851;DHT22;17567;48.382;9.102;2022-08-19T12:22:48;17.70;99.90
30851;DHT22;17567;48.382;9.102;2022-08-19T12:27:49;17.80;99.90
30851;DHT22;17567;48.382;9.102;2022-08-19T12:32:50;17.80;99.90
30851;DHT22;17567;48.382;9.102;2022-08-19T12:37:52;17.80;99.90
30851;DHT22;17567;48.382;9.102;2022-08-19T12:42:54;17.80;99.90
30851;DHT22;17567;48.382;9.102;2022-08-19T12:47:55;17.80;99.90
30851;DHT22;17567;48.382;9.102;2022-08-19T12:52:56;17.90;99.90
30851;DHT22;17567;48.382;9.102;2022-08-19T12:57:58;18.00;99.90
30851;DHT22;17567;48.382;9.102;2022-08-19T13:03:01;17.90;99.90
30851;DHT22;17567;48.382;9.102;2022-08-19T13:08:02;18.00;99.90
30851;DHT22;17567;48.382;9.102;2022-08-19T13:18:10;18.00;99.90
30851;DHT22;17567;48.382;9.102;2022-08-19T13:23:11;18.10;99.90
30851;DHT22;17567;48.382;9.102;2022-08-19T13:28:11;18.10;99.90
30851;DHT22;17567;48.382;9.102;2022-08-19T13:33:12;18.20;99.90
30851;DHT22;17567;48.382;9.102;2022-08-19T13:38:21;18.20;99.90
30851;DHT22;17567;48.382;9.102;2022-08-19T13:48:27;18.40;99.90
30851;DHT22;17567;48.382;9.102;2022-08-19T13:53:28;18.40;99.90
30851;DHT22;17567;48.382;9.102;2022-08-19T13:58:30;18.30;99.90
30851;DHT22;17567;48.382;9.102;2022-08-19T14:03:33;18.30;99.90
30851;DHT22;17567;48.382;9.102;2022-08-19T14:08:34;18.30;99.90
30851;DHT22;17567;48.382;9.102;2022-08-19T14:13:39;18.40;99.90
30851;DHT22;17567;48.382;9.102;2022-08-19T14:18:41;18.40;99.90
30851;DHT22;17567;48.382;9.102;2022-08-19T14:28:46;18.50;99.90
30851;DHT22;17567;48.382;9.102;2022-08-19T14:33:48;18.50;99.90
30851;DHT22;17567;48.382;9.102;2022-08-19T14:38:48;18.40;99.90
30851;DHT22;17567;48.382;9.102;2022-08-19T14:43:52;18.50;99.90
30851;DHT22;17567;48.382;9.102;2022-08-19T14:48:54;18.40;99.90
30851;DHT22;17567;48.382;9.102;2022-08-19T14:53:55;18.30;99.90
30851;DHT22;17567;48.382;9.102;2022-08-19T14:58:56;18.40;99.90
30851;DHT22;17567;48.382;9.102;2022-08-19T15:04:00;18.40;99.90
30851;DHT22;17567;48.382;9.102;2022-08-19T15:09:01;18.50;99.90
30851;DHT22;17567;48.382;9.102;2022-08-19T15:49:21;19.30;99.90
30851;DHT22;17567;48.382;9.102;2022-08-19T15:54:22;19.30;99.90
30851;DHT22;17567;48.382;9.102;2022-08-19T15:59:23;19.40;99.90
30851;DHT22;17567;48.382;9.102;2022-08-19T16:04:42;19.30;99.90
30851;DHT22;17567;48.382;9.102;2022-08-19T16:10:02;19.20;99.90
30851;DHT22;17567;48.382;9.102;2022-08-19T16:15:03;19.20;99.90
30851;DHT22;17567;48.382;9.102;2022-08-19T16:20:07;19.10;99.90
30851;DHT22;17567;48.382;9.102;2022-08-19T16:25:11;19.00;99.90
30851;DHT22;17567;48.382;9.102;2022-08-19T16:30:13;19.00;99.90
30851;DHT22;17567;48.382;9.102;2022-08-19T16:35:14;19.00;99.90
30851;DHT22;17567;48.382;9.102;2022-08-19T16:40:15;19.00;99.90
30851;DHT22;17567;48.382;9.102;2022-08-19T16:45:15;19.10;99.90
30851;DHT22;17567;48.382;9.102;2022-08-19T16:50:21;19.10;99.90
30851;DHT22;17567;48.382;9.102;2022-08-19T16:55:22;19.10;99.90
30851;DHT22;17567;48.382;9.102;2022-08-19T17:00:22;19.30;99.90
30851;DHT22;17567;48.382;9.102;2022-08-19T17:05:23;19.20;99.90
30851;DHT22;17567;48.382;9.102;2022-08-19T17:30:30;19.20;99.90
30851;DHT22;17567;48.382;9.102;2022-08-19T17:35:32;19.20;99.90
30851;DHT22;17567;48.382;9.102;2022-08-19T17:40:34;19.00;99.90
30851;DHT22;17567;48.382;9.102;2022-08-19T17:45:36;19.00;99.90
30851;DHT22;17567;48.382;9.102;2022-08-19T17:50:38;18.90;99.90
30851;DHT22;17567;48.382;9.102;2022-08-19T17:55:39;18.90;99.90
30851;DHT22;17567;48.382;9.102;2022-08-19T18:00:40;18.90;99.90
30851;DHT22;17567;48.382;9.102;2022-08-19T18:05:42;18.90;99.90
30851;DHT22;17567;48.382;9.102;2022-08-19T18:10:43;18.90;99.90
30851;DHT22;17567;48.382;9.102;2022-08-19T19:17:02;18.80;99.90
30851;DHT22;17567;48.382;9.102;2022-08-19T19:27:07;18.80;99.90
30851;DHT22;17567;48.382;9.102;2022-08-19T19:32:25;18.80;99.90
30851;DHT22;17567;48.382;9.102;2022-08-19T20:43:14;18.30;99.90
30851;DHT22;17567;48.382;9.102;2022-08-19T20:48:15;18.30;99.90
30851;DHT22;17567;48.382;9.102;2022-08-19T20:53:18;18.20;99.90
30851;DHT22;17567;48.382;9.102;2022-08-19T20:58:21;18.10;99.90
30851;DHT22;17567;48.382;9.102;2022-08-19T21:03:24;18.00;99.90
30851;DHT22;17567;48.382;9.102;2022-08-19T21:08:26;18.00;99.90
30851;DHT22;17567;48.382;9.102;2022-08-19T21:13:27;18.10;99.90
30851;DHT22;17567;48.382;9.102;2022-08-19T21:18:28;18.00;99.90
